Time;durP1;ratioP1;P1;durP2;ratioP2;P2;SDS_P1;SDS_P2;PMS_P1;PMS_P2;Temp;Humidity;BMP_temperature;BMP_pressure;BME280_temperature;BME280_humidity;BME280_pressure;Samples;Min_cycle;Max_cycle;Signal;HPM_P1;HPM_P2
2020/12/22 00:00:34;;;;;;;20.98;16.42;;;5.40;1.00;;;;;;4987840;28;20319;-69
2020/12/22 00:03:00;;;;;;;19.35;14.55;;;5.40;1.00;;;;;;4985039;28;20352;-69
2020/12/22 00:05:26;;;;;;;16.35;13.65;;;5.40;1.00;;;;;;4981046;28;20247;-69
2020/12/22 00:07:52;;;;;;;20.48;14.73;;;5.50;1.00;;;;;;4984382;28;20231;-69
2020/12/22 00:10:18;;;;;;;21.95;15.50;;;5.40;1.00;;;;;;4982354;28;20327;-69
2020/12/22 00:12:45;;;;;;;16.77;13.95;;;5.40;1.00;;;;;;4982148;28;20220;-69
2020/12/22 00:15:11;;;;;;;19.00;15.63;;;5.50;1.00;;;;;;4978752;28;20350;-70
2020/12/22 00:17:42;;;;;;;26.23;17.23;;;5.50;1.00;;;;;;4982561;28;20231;-70
2020/12/22 00:20:08;;;;;;;21.38;16.70;;;5.50;1.00;;;;;;4983886;28;20311;-70
2020/12/22 00:22:35;;;;;;;17.10;14.50;;;5.60;1.00;;;;;;4985616;28;20314;-70
2020/12/22 00:25:01;;;;;;;20.40;16.13;;;5.60;1.00;;;;;;4984666;28;20292;-70
2020/12/22 00:27:27;;;;;;;21.67;17.23;;;5.60;1.00;;;;;;4984114;28;20277;-69
2020/12/22 00:29:56;;;;;;;21.30;15.65;;;5.60;1.00;;;;;;4998490;28;20261;-70
2020/12/22 00:32:22;;;;;;;23.40;17.77;;;5.60;1.00;;;;;;4990932;28;20314;-69
2020/12/22 00:34:48;;;;;;;21.48;15.23;;;5.60;1.00;;;;;;4989169;28;20314;-69
2020/12/22 00:37:14;;;;;;;21.35;15.50;;;5.70;1.00;;;;;;4999868;28;20226;-69
2020/12/22 00:39:40;;;;;;;19.52;15.02;;;5.70;1.00;;;;;;4997689;28;20224;-70
2020/12/22 00:42:06;;;;;;;20.88;15.55;;;5.70;1.00;;;;;;4995055;28;20684;-69
2020/12/22 00:44:33;;;;;;;21.00;14.75;;;5.80;1.00;;;;;;4991295;28;21050;-69
2020/12/22 00:47:00;;;;;;;23.10;15.65;;;5.70;1.00;;;;;;4996536;28;20948;-69
2020/12/22 00:49:26;;;;;;;19.58;15.77;;;5.80;1.00;;;;;;4983797;28;20326;-69
2020/12/22 00:51:53;;;;;;;21.48;16.40;;;5.80;1.00;;;;;;4982845;28;20242;-70
2020/12/22 00:54:19;;;;;;;20.65;16.70;;;5.80;1.00;;;;;;4993555;28;20220;-69
2020/12/22 00:56:47;;;;;;;20.63;14.50;;;5.80;1.00;;;;;;4992450;28;20263;-68
2020/12/22 00:59:13;;;;;;;20.38;14.95;;;5.80;1.00;;;;;;4984832;28;20219;-69
2020/12/22 01:01:40;;;;;;;22.15;16.52;;;5.90;1.00;;;;;;4986183;28;20331;-69
2020/12/22 01:04:07;;;;;;;21.60;15.30;;;5.90;1.00;;;;;;4990332;28;20333;-69
2020/12/22 01:06:37;;;;;;;23.50;16.58;;;5.90;1.00;;;;;;4988282;28;20712;-69
2020/12/22 01:09:04;;;;;;;17.90;16.05;;;5.90;1.00;;;;;;4978212;28;20231;-69
2020/12/22 01:11:34;;;;;;;21.60;16.13;;;5.90;1.00;;;;;;4993660;28;21046;-68
2020/12/22 01:14:00;;;;;;;21.73;16.92;;;6.00;1.00;;;;;;4988125;28;20658;-68
2020/12/22 01:16:26;;;;;;;20.23;14.63;;;6.00;1.00;;;;;;4995172;28;20258;-68
2020/12/22 01:18:52;;;;;;;18.70;15.00;;;6.00;1.00;;;;;;4993640;28;20319;-69
2020/12/22 01:21:21;;;;;;;21.23;15.50;;;6.00;1.00;;;;;;5000381;28;20254;-69
2020/12/22 01:23:49;;;;;;;19.90;14.85;;;6.10;1.00;;;;;;5001775;28;20233;-69
2020/12/22 01:26:18;;;;;;;19.23;15.40;;;6.10;1.00;;;;;;4990883;28;20239;-68
2020/12/22 01:28:45;;;;;;;21.13;14.98;;;6.10;1.00;;;;;;4993881;28;20283;-69
2020/12/22 01:31:11;;;;;;;18.65;15.75;;;6.10;1.00;;;;;;4989542;28;20783;-68
2020/12/22 01:33:37;;;;;;;20.15;15.93;;;6.10;1.00;;;;;;4988277;28;20215;-68
2020/12/22 01:36:03;;;;;;;22.80;15.30;;;6.20;1.00;;;;;;4990467;28;20231;-70
2020/12/22 01:38:30;;;;;;;21.33;15.77;;;6.20;1.00;;;;;;4987983;28;20231;-70
2020/12/22 01:40:56;;;;;;;19.90;15.63;;;6.20;1.00;;;;;;4990401;28;20244;-69
2020/12/22 01:43:23;;;;;;;21.17;15.98;;;6.20;1.00;;;;;;4990341;28;20227;-69
2020/12/22 01:45:49;;;;;;;17.90;15.30;;;6.30;1.00;;;;;;4987052;28;20314;-70
2020/12/22 01:48:15;;;;;;;22.60;15.65;;;6.30;1.00;;;;;;4997712;28;20313;-69
2020/12/22 01:50:41;;;;;;;17.10;15.30;;;6.30;1.00;;;;;;4988162;28;21062;-70
2020/12/22 01:53:07;;;;;;;22.83;15.25;;;6.30;1.00;;;;;;4990964;28;20222;-70
2020/12/22 01:55:41;;;;;;;19.80;14.25;;;6.30;1.00;;;;;;4985535;28;20326;-69
2020/12/22 01:58:07;;;;;;;20.02;15.13;;;6.40;1.00;;;;;;4987914;28;20220;-70
2020/12/22 02:00:33;;;;;;;20.08;15.90;;;6.30;1.00;;;;;;4995908;28;20274;-70
2020/12/22 02:02:59;;;;;;;21.13;16.20;;;6.40;1.00;;;;;;4988503;28;20223;-70
2020/12/22 02:05:26;;;;;;;22.35;16.75;;;6.40;1.00;;;;;;4990502;28;21119;-70
2020/12/22 02:07:52;;;;;;;19.67;15.25;;;6.40;1.00;;;;;;4978636;28;20228;-70
2020/12/22 02:10:18;;;;;;;17.65;15.70;;;6.40;1.00;;;;;;4993025;28;20282;-70
2020/12/22 02:12:45;;;;;;;20.98;16.63;;;6.40;1.00;;;;;;4982795;28;20226;-68
2020/12/22 02:15:11;;;;;;;20.45;15.27;;;6.40;1.00;;;;;;4979101;28;20231;-68
2020/12/22 02:17:38;;;;;;;22.05;15.18;;;6.40;1.00;;;;;;4984065;28;20345;-69
2020/12/22 02:20:05;;;;;;;19.45;15.75;;;6.40;1.00;;;;;;4979023;28;20232;-68
2020/12/22 02:22:33;;;;;;;20.55;15.80;;;6.50;1.00;;;;;;4985057;28;20231;-68
2020/12/22 02:24:59;;;;;;;22.15;16.60;;;6.40;1.00;;;;;;4980286;28;20240;-69
2020/12/22 02:27:25;;;;;;;19.65;15.23;;;6.30;1.00;;;;;;4983547;28;20234;-68
2020/12/22 02:29:52;;;;;;;21.13;16.77;;;6.30;1.00;;;;;;4982105;28;21165;-68
2020/12/22 02:32:18;;;;;;;19.88;15.90;;;6.20;1.00;;;;;;4993636;28;20307;-68
2020/12/22 02:34:44;;;;;;;20.38;16.60;;;6.10;1.00;;;;;;4989457;28;20240;-68
2020/12/22 02:37:10;;;;;;;24.02;16.83;;;6.10;1.00;;;;;;4995341;28;23646;-68
2020/12/22 02:39:37;;;;;;;23.90;16.95;;;6.10;1.00;;;;;;4989704;28;20236;-68
2020/12/22 02:42:03;;;;;;;22.30;16.92;;;6.00;1.00;;;;;;4988841;28;21040;-68
2020/12/22 02:44:30;;;;;;;20.85;16.52;;;6.00;1.00;;;;;;4987419;28;20248;-68
2020/12/22 02:46:56;;;;;;;26.48;17.77;;;6.00;1.00;;;;;;4983186;28;20777;-68
2020/12/22 02:49:22;;;;;;;24.58;16.52;;;6.00;1.00;;;;;;4989760;28;20233;-68
2020/12/22 02:51:48;;;;;;;21.42;16.98;;;6.00;1.00;;;;;;4992138;28;20227;-69
2020/12/22 02:54:14;;;;;;;22.48;17.50;;;6.00;1.00;;;;;;4988891;28;20230;-69
2020/12/22 02:56:41;;;;;;;25.40;18.80;;;6.00;1.00;;;;;;4991746;28;20790;-68
2020/12/22 02:59:08;;;;;;;22.65;17.60;;;6.00;1.00;;;;;;4995247;28;21174;-68
2020/12/22 03:01:39;;;;;;;24.23;17.60;;;6.00;1.00;;;;;;4990399;28;20267;-68
2020/12/22 03:04:05;;;;;;;22.02;16.30;;;6.00;1.00;;;;;;4989011;28;20235;-69
2020/12/22 03:06:31;;;;;;;23.08;17.92;;;5.90;1.00;;;;;;4988814;28;20432;-68
2020/12/22 03:08:57;;;;;;;27.20;19.58;;;5.90;1.00;;;;;;4982330;28;20255;-68
2020/12/22 03:11:24;;;;;;;24.85;18.95;;;6.00;1.00;;;;;;4982030;28;20224;-68
2020/12/22 03:13:51;;;;;;;23.50;18.70;;;6.00;1.00;;;;;;4981004;28;20298;-69
2020/12/22 03:16:18;;;;;;;25.73;19.17;;;6.00;1.00;;;;;;4983925;28;20322;-69
2020/12/22 03:18:44;;;;;;;26.05;19.00;;;6.00;1.00;;;;;;4983574;28;20236;-69
2020/12/22 03:21:10;;;;;;;21.65;18.02;;;5.90;1.00;;;;;;4984222;28;21657;-68
2020/12/22 03:23:36;;;;;;;24.15;19.65;;;5.90;1.00;;;;;;4982249;28;20231;-68
2020/12/22 03:26:03;;;;;;;22.88;18.65;;;5.90;1.00;;;;;;4982577;28;20327;-69
2020/12/22 03:28:29;;;;;;;27.15;19.48;;;5.90;1.00;;;;;;4988164;28;21081;-69
2020/12/22 03:30:56;;;;;;;25.80;19.42;;;5.90;1.00;;;;;;4996986;28;20326;-70
2020/12/22 03:33:22;;;;;;;33.88;21.58;;;5.90;1.00;;;;;;4997222;28;20248;-69
2020/12/22 03:35:48;;;;;;;27.00;20.10;;;5.90;1.00;;;;;;4994142;28;20693;-69
2020/12/22 03:38:14;;;;;;;29.63;20.88;;;5.90;1.00;;;;;;4983872;28;20697;-69
2020/12/22 03:40:40;;;;;;;26.95;20.95;;;5.90;1.00;;;;;;4987371;28;20290;-68
2020/12/22 03:43:07;;;;;;;27.13;19.23;;;5.90;1.00;;;;;;4983821;28;20592;-69
2020/12/22 03:45:33;;;;;;;28.70;21.48;;;5.90;1.00;;;;;;4981145;28;21028;-68
2020/12/22 03:48:00;;;;;;;31.00;22.55;;;6.00;1.00;;;;;;4980092;28;20228;-72
2020/12/22 03:50:26;;;;;;;31.70;21.67;;;6.00;1.00;;;;;;4983577;28;20230;-69
2020/12/22 03:52:52;;;;;;;26.30;20.48;;;6.00;1.00;;;;;;4983458;28;20233;-69
2020/12/22 03:55:19;;;;;;;30.88;20.92;;;6.00;1.00;;;;;;4981011;28;20311;-69
2020/12/22 03:57:45;;;;;;;29.00;21.35;;;6.00;1.00;;;;;;4980371;28;20236;-69
2020/12/22 04:00:14;;;;;;;28.25;20.30;;;6.10;1.00;;;;;;4981844;28;20232;-69
2020/12/22 04:02:40;;;;;;;27.63;19.92;;;6.10;1.00;;;;;;4982745;28;20239;-68
2020/12/22 04:05:07;;;;;;;29.45;20.00;;;6.00;1.00;;;;;;4980353;28;20231;-69
2020/12/22 04:07:33;;;;;;;28.92;20.58;;;6.00;1.00;;;;;;4981672;28;20245;-69
2020/12/22 04:10:01;;;;;;;29.33;20.88;;;6.00;1.00;;;;;;4981568;28;20230;-69
2020/12/22 04:12:27;;;;;;;31.73;23.30;;;6.10;1.00;;;;;;4979255;28;20212;-69
2020/12/22 04:14:53;;;;;;;32.47;21.17;;;6.10;1.00;;;;;;4983280;28;20231;-69
2020/12/22 04:17:21;;;;;;;30.65;22.23;;;6.10;1.00;;;;;;4982692;28;21097;-69
2020/12/22 04:19:47;;;;;;;28.35;21.38;;;6.10;1.00;;;;;;4981960;28;20258;-70
2020/12/22 04:22:14;;;;;;;28.42;21.38;;;6.10;1.00;;;;;;4987994;28;20311;-70
2020/12/22 04:24:40;;;;;;;29.15;21.05;;;6.10;1.00;;;;;;4984961;28;20236;-70
2020/12/22 04:27:07;;;;;;;31.95;22.15;;;6.20;1.00;;;;;;4988338;28;20228;-70
2020/12/22 04:29:33;;;;;;;29.50;20.95;;;6.20;1.00;;;;;;4986032;28;20639;-69
2020/12/22 04:31:59;;;;;;;30.20;22.80;;;6.20;1.00;;;;;;4987836;28;20322;-70
2020/12/22 04:34:26;;;;;;;29.83;20.88;;;6.20;1.00;;;;;;4987174;28;21000;-68
2020/12/22 04:36:52;;;;;;;31.35;21.15;;;6.20;1.00;;;;;;4987291;28;20232;-69
2020/12/22 04:39:19;;;;;;;31.67;22.55;;;6.30;1.00;;;;;;4986909;28;20739;-69
2020/12/22 04:41:47;;;;;;;30.30;20.75;;;6.30;1.00;;;;;;4986369;28;22531;-69
2020/12/22 04:44:13;;;;;;;30.23;21.10;;;6.40;1.00;;;;;;4986651;28;21118;-69
2020/12/22 04:46:40;;;;;;;31.73;22.27;;;6.40;1.00;;;;;;4984667;28;20220;-69
2020/12/22 04:49:10;;;;;;;29.58;20.95;;;6.40;1.00;;;;;;4994241;28;20283;-69
2020/12/22 04:51:37;;;;;;;28.10;20.27;;;6.50;1.00;;;;;;4982968;28;20215;-69
2020/12/22 04:54:04;;;;;;;25.63;20.02;;;6.50;1.00;;;;;;4990856;28;20239;-69
2020/12/22 04:56:31;;;;;;;28.38;21.42;;;6.50;1.00;;;;;;4993055;28;20311;-70
2020/12/22 04:58:58;;;;;;;29.80;20.52;;;6.50;1.00;;;;;;4998285;28;20225;-71
2020/12/22 05:01:25;;;;;;;25.65;19.50;;;6.60;1.00;;;;;;4990109;28;20231;-69
2020/12/22 05:03:51;;;;;;;29.50;20.45;;;6.60;1.00;;;;;;4996826;28;20275;-69
2020/12/22 05:06:17;;;;;;;31.15;20.15;;;6.60;1.00;;;;;;4996578;28;20237;-69
2020/12/22 05:08:44;;;;;;;30.17;20.40;;;6.70;1.00;;;;;;4982473;28;20224;-70
2020/12/22 05:11:15;;;;;;;28.45;19.75;;;6.70;1.00;;;;;;4980642;28;20228;-70
2020/12/22 05:13:42;;;;;;;28.60;20.70;;;6.70;1.00;;;;;;4982771;28;20701;-69
2020/12/22 05:16:09;;;;;;;32.20;21.23;;;6.80;1.00;;;;;;4986853;28;20415;-69
2020/12/22 05:18:36;;;;;;;23.33;18.60;;;6.80;1.00;;;;;;4986259;28;20234;-70
2020/12/22 05:21:02;;;;;;;25.50;19.38;;;6.80;1.00;;;;;;4993027;28;21111;-70
2020/12/22 05:23:30;;;;;;;25.02;19.20;;;6.80;1.00;;;;;;4995992;28;20251;-69
2020/12/22 05:25:59;;;;;;;22.67;18.13;;;6.90;1.00;;;;;;4993894;28;20332;-68
2020/12/22 05:28:27;;;;;;;25.10;17.80;;;6.90;1.00;;;;;;4985175;28;20223;-69
2020/12/22 05:30:54;;;;;;;25.67;18.15;;;6.90;1.00;;;;;;5003081;28;20227;-69
2020/12/22 05:33:20;;;;;;;24.77;18.20;;;7.00;1.00;;;;;;4987486;28;20312;-68
2020/12/22 05:35:48;;;;;;;29.35;17.70;;;7.00;1.00;;;;;;4989666;28;20219;-68
2020/12/22 05:38:16;;;;;;;25.65;18.17;;;7.00;1.00;;;;;;4996288;28;20238;-71
2020/12/22 05:40:43;;;;;;;24.20;17.95;;;7.00;1.00;;;;;;4990796;28;20326;-70
2020/12/22 05:43:10;;;;;;;25.73;18.10;;;7.10;1.00;;;;;;4999330;28;20230;-71
2020/12/22 05:45:38;;;;;;;27.00;18.60;;;7.10;1.00;;;;;;4985720;28;20238;-71
2020/12/22 05:48:06;;;;;;;25.83;17.60;;;7.10;1.00;;;;;;4989991;28;20703;-69
2020/12/22 05:50:34;;;;;;;25.10;17.05;;;7.20;1.00;;;;;;4991080;28;20291;-70
2020/12/22 05:53:00;;;;;;;17.95;16.10;;;7.20;1.00;;;;;;4987919;28;20220;-70
2020/12/22 05:55:28;;;;;;;25.13;17.50;;;7.20;1.00;;;;;;4984909;28;20229;-71
2020/12/22 05:58:08;;;;;;;19.25;15.80;;;7.20;1.00;;;;;;4994013;28;20238;-69
2020/12/22 06:00:35;;;;;;;20.83;16.48;;;7.30;1.00;;;;;;4991814;28;20651;-70
2020/12/22 06:03:07;;;;;;;23.45;16.15;;;7.30;1.00;;;;;;4993182;28;20323;-71
2020/12/22 06:05:38;;;;;;;25.00;17.23;;;7.30;1.00;;;;;;4997670;28;20250;-70
2020/12/22 06:08:06;;;;;;;23.30;16.35;;;7.40;1.00;;;;;;4993489;28;20224;-70
2020/12/22 06:10:35;;;;;;;26.35;15.98;;;7.40;1.00;;;;;;4988981;28;20232;-70
2020/12/22 06:13:02;;;;;;;19.58;14.93;;;7.50;1.00;;;;;;4987718;28;20333;-70
2020/12/22 06:15:29;;;;;;;19.50;15.05;;;7.50;1.00;;;;;;4983764;28;20283;-70
2020/12/22 06:17:55;;;;;;;23.35;16.00;;;7.60;1.00;;;;;;4983864;28;20784;-70
2020/12/22 06:20:23;;;;;;;18.58;14.00;;;7.60;1.00;;;;;;4982861;28;20258;-70
2020/12/22 06:22:49;;;;;;;19.00;14.55;;;7.60;1.00;;;;;;4984312;28;20701;-70
2020/12/22 06:25:21;;;;;;;16.90;13.82;;;7.70;1.00;;;;;;4983648;28;20259;-70
2020/12/22 06:27:47;;;;;;;16.23;13.98;;;7.70;1.00;;;;;;4985109;28;20244;-70
2020/12/22 06:30:16;;;;;;;15.85;13.30;;;7.80;1.00;;;;;;4982779;28;20236;-70
2020/12/22 06:32:42;;;;;;;21.48;15.07;;;7.80;1.00;;;;;;4986434;28;20227;-70
2020/12/22 06:35:30;;;;;;;16.05;13.40;;;7.80;1.00;;;;;;4986802;28;20224;-70
2020/12/22 06:37:57;;;;;;;16.75;13.30;;;7.90;1.00;;;;;;4988640;28;20239;-70
2020/12/22 06:40:53;;;;;;;17.42;14.65;;;7.90;1.00;;;;;;4987075;28;20302;-70
2020/12/22 06:43:44;;;;;;;19.60;13.98;;;7.90;1.00;;;;;;4985106;28;21364;-70
2020/12/22 06:46:32;;;;;;;19.25;14.35;;;8.00;1.00;;;;;;4966127;28;20363;-70
2020/12/22 06:48:59;;;;;;;17.58;13.05;;;8.00;1.00;;;;;;4987046;28;22173;-70
2020/12/22 06:51:31;;;;;;;18.48;13.05;;;8.00;1.00;;;;;;4984257;28;20238;-70
2020/12/22 06:53:58;;;;;;;16.42;12.35;;;8.00;1.00;;;;;;4984010;28;20227;-71
2020/12/22 06:56:44;;;;;;;14.95;12.27;;;8.10;1.00;;;;;;4977115;28;20236;-70
2020/12/22 06:59:11;;;;;;;15.20;11.52;;;8.10;1.00;;;;;;4978287;28;20220;-70
2020/12/22 07:01:38;;;;;;;15.20;11.75;;;8.10;1.00;;;;;;4980906;28;20223;-69
2020/12/22 07:04:14;;;;;;;16.67;12.40;;;8.20;1.00;;;;;;4984608;28;20215;-71
2020/12/22 07:06:49;;;;;;;15.48;11.30;;;8.20;1.00;;;;;;4985535;28;20229;-71
2020/12/22 07:09:17;;;;;;;12.73;10.07;;;8.20;1.00;;;;;;4980695;28;20301;-71
2020/12/22 07:11:44;;;;;;;16.40;11.27;;;8.30;1.00;;;;;;4983445;28;20345;-70
2020/12/22 07:14:14;;;;;;;14.23;11.32;;;8.40;1.00;;;;;;4984525;28;20952;-70
2020/12/22 07:16:49;;;;;;;12.00;10.32;;;8.40;1.00;;;;;;4988898;28;20223;-70
2020/12/22 07:19:22;;;;;;;12.57;10.00;;;8.50;1.00;;;;;;4992505;28;20321;-71
2020/12/22 07:21:51;;;;;;;12.63;9.80;;;8.60;1.00;;;;;;4983034;28;20231;-69
2020/12/22 07:24:17;;;;;;;13.40;10.63;;;8.60;1.00;;;;;;4986683;28;20736;-70
2020/12/22 07:26:45;;;;;;;12.48;10.25;;;8.60;1.00;;;;;;4981248;28;20969;-71
2020/12/22 07:29:12;;;;;;;14.82;10.85;;;8.70;1.00;;;;;;4984694;28;20303;-69
2020/12/22 07:31:39;;;;;;;12.18;9.98;;;8.70;1.00;;;;;;4982169;28;20227;-71
2020/12/22 07:34:07;;;;;;;10.75;9.65;;;8.70;1.00;;;;;;4993179;28;20258;-70
2020/12/22 07:36:34;;;;;;;13.73;10.77;;;8.80;1.00;;;;;;4988576;28;20252;-70
2020/12/22 07:39:12;;;;;;;11.18;9.43;;;8.80;1.00;;;;;;4986339;28;20239;-71
2020/12/22 07:41:38;;;;;;;14.60;10.10;;;8.80;1.00;;;;;;4983235;28;20327;-69
2020/12/22 07:44:09;;;;;;;9.93;9.02;;;8.80;1.00;;;;;;4980568;28;20252;-70
2020/12/22 07:46:36;;;;;;;11.57;9.90;;;8.90;1.00;;;;;;4983898;28;20281;-70
2020/12/22 07:49:04;;;;;;;11.30;9.68;;;8.90;1.00;;;;;;4996300;28;20228;-70
2020/12/22 07:51:30;;;;;;;9.90;8.75;;;8.90;1.00;;;;;;4985702;28;20297;-70
2020/12/22 07:54:03;;;;;;;9.23;8.25;;;9.00;1.00;;;;;;4983761;28;20224;-70
2020/12/22 07:56:33;;;;;;;10.05;8.25;;;9.00;1.00;;;;;;4988352;28;20236;-71
2020/12/22 07:59:02;;;;;;;8.38;7.57;;;9.10;1.00;;;;;;4990296;28;20255;-73
2020/12/22 08:01:38;;;;;;;8.38;7.50;;;9.10;1.00;;;;;;4988922;28;20235;-70
2020/12/22 08:04:11;;;;;;;7.28;6.57;;;9.10;1.00;;;;;;4989668;28;20234;-70
2020/12/22 08:06:38;;;;;;;7.32;5.88;;;9.20;1.00;;;;;;4995987;28;20239;-70
2020/12/22 08:09:04;;;;;;;6.35;5.75;;;9.20;1.00;;;;;;4991895;28;20322;-69
2020/12/22 08:11:32;;;;;;;6.63;5.75;;;9.30;1.00;;;;;;4991253;28;20224;-70
2020/12/22 08:14:00;;;;;;;6.22;5.32;;;9.40;1.00;;;;;;4987582;28;20401;-69
2020/12/22 08:16:28;;;;;;;8.75;7.82;;;9.40;1.00;;;;;;4986178;28;20282;-70
2020/12/22 08:18:55;;;;;;;6.05;5.53;;;9.40;1.00;;;;;;4982732;28;20227;-69
2020/12/22 08:21:22;;;;;;;6.10;5.50;;;9.40;1.00;;;;;;4982404;28;20275;-69
2020/12/22 08:23:50;;;;;;;7.07;6.05;;;9.50;1.00;;;;;;4983306;28;20246;-69
2020/12/22 08:26:18;;;;;;;5.97;4.68;;;9.50;1.00;;;;;;4984186;28;20733;-70
2020/12/22 08:28:53;;;;;;;5.80;4.90;;;9.60;1.00;;;;;;4986560;28;20215;-69
2020/12/22 08:31:23;;;;;;;6.82;5.97;;;9.60;1.00;;;;;;4980858;28;20243;-70
2020/12/22 08:33:55;;;;;;;8.05;6.82;;;9.60;1.00;;;;;;4978834;28;20224;-69
2020/12/22 08:36:26;;;;;;;12.77;9.63;;;9.70;1.00;;;;;;4984352;28;20234;-69
2020/12/22 08:38:52;;;;;;;15.90;11.80;;;9.70;1.00;;;;;;4973593;28;20311;-69
2020/12/22 08:41:21;;;;;;;23.55;15.45;;;9.80;1.00;;;;;;4980143;28;20232;-68
2020/12/22 08:43:49;;;;;;;19.65;14.68;;;9.70;1.00;;;;;;4980002;28;20247;-70
2020/12/22 08:46:17;;;;;;;20.52;14.23;;;9.80;1.00;;;;;;4986541;28;20239;-70
2020/12/22 08:48:43;;;;;;;18.77;14.27;;;9.80;1.00;;;;;;4983635;28;20775;-70
2020/12/22 08:51:09;;;;;;;20.85;14.43;;;9.90;1.00;;;;;;4977431;28;20232;-71
2020/12/22 08:53:37;;;;;;;26.02;13.80;;;9.90;1.00;;;;;;4985510;28;20312;-70
2020/12/22 08:56:08;;;;;;;22.17;14.32;;;9.90;1.00;;;;;;4975553;28;20977;-70
2020/12/22 08:58:34;;;;;;;33.75;19.05;;;10.00;1.00;;;;;;4987989;28;20310;-69
2020/12/22 09:01:20;;;;;;;37.95;18.75;;;10.00;1.00;;;;;;4987254;28;20236;-69
2020/12/22 09:03:51;;;;;;;35.50;19.33;;;10.10;1.00;;;;;;4980835;28;21104;-70
2020/12/22 09:06:18;;;;;;;38.08;20.05;;;10.10;1.00;;;;;;4986405;28;20258;-69
2020/12/22 09:08:45;;;;;;;31.38;16.67;;;10.10;1.00;;;;;;4981888;28;20954;-69
2020/12/22 09:11:19;;;;;;;22.35;12.75;;;10.20;1.00;;;;;;4984535;28;20233;-69
2020/12/22 09:13:46;;;;;;;22.13;13.43;;;10.20;1.00;;;;;;4985924;28;20224;-70
2020/12/22 09:16:12;;;;;;;17.83;13.00;;;10.20;1.00;;;;;;4982772;28;20812;-69
2020/12/22 09:18:39;;;;;;;15.73;8.38;;;10.30;1.00;;;;;;4985660;28;20310;-71
2020/12/22 09:21:07;;;;;;;13.25;7.40;;;10.30;1.00;;;;;;4985122;28;20338;-70
2020/12/22 09:23:44;;;;;;;7.47;5.35;;;10.40;1.00;;;;;;4988212;28;20219;-70
2020/12/22 09:26:10;;;;;;;3.92;3.63;;;10.40;1.00;;;;;;4986772;28;20237;-70
2020/12/22 09:28:36;;;;;;;2.97;2.60;;;10.50;1.00;;;;;;4988173;28;20274;-71
2020/12/22 09:31:02;;;;;;;2.97;2.33;;;10.50;1.00;;;;;;4991001;28;20255;-69
2020/12/22 09:33:28;;;;;;;2.42;2.22;;;10.60;1.00;;;;;;4990732;28;20260;-70
2020/12/22 09:35:55;;;;;;;2.13;1.98;;;10.60;1.00;;;;;;4984624;28;20245;-70
2020/12/22 09:38:22;;;;;;;2.65;2.45;;;10.60;1.00;;;;;;4994814;28;20227;-70
2020/12/22 09:40:49;;;;;;;2.03;1.83;;;10.60;1.00;;;;;;4994749;28;20774;-70
2020/12/22 09:43:15;;;;;;;2.63;2.22;;;10.70;1.00;;;;;;4983251;28;20314;-70
2020/12/22 09:45:41;;;;;;;8.38;2.17;;;10.70;1.00;;;;;;4989100;28;20235;-69
2020/12/22 09:48:07;;;;;;;2.38;2.17;;;10.70;1.00;;;;;;4984676;28;20271;-70
2020/12/22 09:50:34;;;;;;;2.33;2.13;;;10.80;1.00;;;;;;4992627;28;20323;-70
2020/12/22 09:53:01;;;;;;;2.85;2.13;;;10.90;1.00;;;;;;4986727;28;21112;-69
2020/12/22 09:55:27;;;;;;;2.90;1.85;;;10.90;1.00;;;;;;4987226;28;20224;-68
2020/12/22 09:57:53;;;;;;;4.95;2.72;;;10.90;1.00;;;;;;4987750;28;20221;-71
2020/12/22 10:00:19;;;;;;;2.20;2.00;;;10.90;1.00;;;;;;4984517;28;20309;-71
2020/12/22 10:02:46;;;;;;;2.30;1.67;;;11.00;1.00;;;;;;4990477;28;20220;-70
2020/12/22 10:05:12;;;;;;;2.95;2.75;;;11.00;1.00;;;;;;4987333;28;20326;-70
2020/12/22 10:07:38;;;;;;;1.70;1.60;;;11.00;1.00;;;;;;4991506;28;20247;-70
2020/12/22 10:10:05;;;;;;;5.03;4.63;;;11.10;1.00;;;;;;4992720;28;20433;-71
2020/12/22 10:12:32;;;;;;;1.80;1.70;;;11.10;1.00;;;;;;4989778;28;20221;-69
2020/12/22 10:14:58;;;;;;;2.78;1.67;;;11.10;1.00;;;;;;4989660;28;20647;-70
2020/12/22 10:17:24;;;;;;;2.78;1.40;;;11.10;1.00;;;;;;4986815;28;20799;-69
2020/12/22 10:19:51;;;;;;;1.73;1.63;;;11.10;1.00;;;;;;4986590;28;20258;-69
2020/12/22 10:22:17;;;;;;;2.03;1.48;;;11.20;1.00;;;;;;4991676;28;20243;-69
2020/12/22 10:24:43;;;;;;;2.53;1.63;;;11.20;1.00;;;;;;4991246;28;20234;-69
2020/12/22 10:27:10;;;;;;;2.10;1.90;;;11.20;1.00;;;;;;4991403;28;20235;-69
2020/12/22 10:29:36;;;;;;;1.90;1.50;;;11.20;1.00;;;;;;4984922;28;20340;-68
2020/12/22 10:32:02;;;;;;;1.73;1.58;;;11.30;1.00;;;;;;4990984;28;20351;-69
2020/12/22 10:34:29;;;;;;;1.95;1.65;;;11.30;1.00;;;;;;4990164;28;20359;-69
2020/12/22 10:36:56;;;;;;;3.70;3.40;;;11.40;1.00;;;;;;4991024;28;20231;-70
2020/12/22 10:39:23;;;;;;;2.55;1.58;;;11.40;1.00;;;;;;4988179;28;20228;-69
2020/12/22 10:41:49;;;;;;;1.50;1.40;;;11.40;1.00;;;;;;4990305;28;20224;-69
2020/12/22 10:44:16;;;;;;;1.55;1.35;;;11.40;1.00;;;;;;4987260;28;20716;-69
2020/12/22 10:46:46;;;;;;;2.10;1.30;;;11.50;1.00;;;;;;4987110;28;20248;-69
2020/12/22 10:49:12;;;;;;;1.20;1.05;;;11.50;1.00;;;;;;4982842;28;20229;-69
2020/12/22 10:51:39;;;;;;;2.25;1.48;;;11.50;1.00;;;;;;4987140;28;20227;-69
2020/12/22 10:54:05;;;;;;;1.58;1.48;;;11.60;1.00;;;;;;4988176;28;20251;-68
2020/12/22 10:56:31;;;;;;;2.50;2.30;;;11.60;1.00;;;;;;4987107;28;21030;-70
2020/12/22 10:58:58;;;;;;;1.92;1.80;;;11.60;1.00;;;;;;4986854;28;20227;-69
2020/12/22 11:01:25;;;;;;;1.38;1.20;;;11.70;1.00;;;;;;4975473;28;20228;-68
2020/12/22 11:03:51;;;;;;;1.92;1.67;;;11.70;1.00;;;;;;4980469;28;20248;-69
2020/12/22 11:06:29;;;;;;;1.85;1.60;;;11.70;1.00;;;;;;4979743;28;20236;-69
2020/12/22 11:08:55;;;;;;;1.93;1.70;;;11.80;1.00;;;;;;4978393;28;21459;-69
2020/12/22 11:11:23;;;;;;;2.20;1.40;;;11.80;1.00;;;;;;4974352;28;21453;-69
2020/12/22 11:13:50;;;;;;;1.70;1.47;;;11.80;1.00;;;;;;4984325;28;20307;-69
2020/12/22 11:16:16;;;;;;;2.97;2.43;;;11.90;1.00;;;;;;4987426;28;20454;-69
2020/12/22 11:18:43;;;;;;;1.30;1.17;;;11.90;1.00;;;;;;4980653;28;21693;-70
2020/12/22 11:21:10;;;;;;;2.17;1.70;;;12.00;1.00;;;;;;4981792;28;20223;-70
2020/12/22 11:23:36;;;;;;;1.80;1.20;;;12.00;1.00;;;;;;4980746;28;20223;-70
2020/12/22 11:26:03;;;;;;;2.00;1.80;;;12.00;1.00;;;;;;4992999;28;20228;-70
2020/12/22 11:28:29;;;;;;;4.60;2.20;;;12.00;1.00;;;;;;4998653;28;20456;-69
2020/12/22 11:30:56;;;;;;;3.75;1.90;;;12.10;1.00;;;;;;4993391;28;20475;-69
2020/12/22 11:33:22;;;;;;;2.00;1.80;;;12.10;1.00;;;;;;4989976;28;20289;-70
2020/12/22 11:35:49;;;;;;;1.90;1.33;;;12.20;1.00;;;;;;5004154;28;20451;-69
2020/12/22 11:38:15;;;;;;;2.27;1.90;;;12.30;1.00;;;;;;4990141;28;20460;-69
2020/12/22 11:40:41;;;;;;;1.90;1.70;;;12.30;1.00;;;;;;4985880;28;21491;-69
2020/12/22 11:43:08;;;;;;;2.03;1.87;;;12.30;1.00;;;;;;4983551;28;20433;-69
2020/12/22 11:45:34;;;;;;;4.70;2.13;;;12.40;1.00;;;;;;4987303;28;20466;-70
2020/12/22 11:48:00;;;;;;;2.30;1.87;;;12.40;1.00;;;;;;4991373;28;20459;-70
2020/12/22 11:50:26;;;;;;;2.80;2.10;;;12.50;1.00;;;;;;4984467;28;20461;-70
2020/12/22 11:52:54;;;;;;;2.60;1.50;;;12.60;1.00;;;;;;4990696;28;21727;-70
2020/12/22 11:55:20;;;;;;;2.17;1.97;;;12.60;1.00;;;;;;4985604;28;20313;-70
2020/12/22 11:57:47;;;;;;;2.57;1.90;;;12.60;1.00;;;;;;4983252;28;20473;-70
2020/12/22 12:00:13;;;;;;;2.43;2.20;;;12.70;1.00;;;;;;4984529;28;20479;-70
2020/12/22 12:02:40;;;;;;;1.50;1.30;;;12.70;1.00;;;;;;4986330;28;20525;-70
2020/12/22 12:05:06;;;;;;;1.47;1.37;;;12.70;1.00;;;;;;4983202;28;20457;-70
2020/12/22 12:07:32;;;;;;;2.63;1.83;;;12.80;1.00;;;;;;4986318;28;20461;-70
2020/12/22 12:10:01;;;;;;;3.90;2.30;;;12.80;1.00;;;;;;4989086;28;20566;-70
2020/12/22 12:12:28;;;;;;;2.37;2.17;;;12.80;1.00;;;;;;4981271;28;20447;-69
2020/12/22 12:14:55;;;;;;;2.80;2.00;;;12.90;1.00;;;;;;4983716;28;21868;-69
2020/12/22 12:17:21;;;;;;;1.70;1.60;;;13.00;1.00;;;;;;4988535;28;20482;-70
2020/12/22 12:19:48;;;;;;;2.20;1.40;;;13.00;1.00;;;;;;4991325;28;20463;-70
2020/12/22 12:22:14;;;;;;;2.07;1.77;;;13.20;1.00;;;;;;4988713;28;20489;-70
2020/12/22 12:24:40;;;;;;;2.33;1.40;;;13.40;1.00;;;;;;4993423;28;20545;-70
2020/12/22 12:27:07;;;;;;;1.40;1.30;;;13.70;1.00;;;;;;4995772;28;20446;-70
2020/12/22 12:29:33;;;;;;;2.43;2.20;;;13.80;1.00;;;;;;5004239;28;20527;-70
2020/12/22 12:31:59;;;;;;;1.97;1.70;;;13.90;1.00;;;;;;5005676;28;20440;-70
2020/12/22 12:34:27;;;;;;;2.40;1.50;;;13.80;1.00;;;;;;4999436;28;20506;-71
2020/12/22 12:36:53;;;;;;;1.97;1.77;;;13.80;1.00;;;;;;4996857;28;20534;-70
2020/12/22 12:39:19;;;;;;;1.50;1.23;;;14.00;1.00;;;;;;4990250;28;20420;-70
2020/12/22 12:41:49;;;;;;;2.03;1.40;;;15.30;1.00;;;;;;4991907;28;21367;-69
2020/12/22 12:44:16;;;;;;;1.57;1.40;;;16.50;1.00;;;;;;4993118;28;21058;-70
2020/12/22 12:46:42;;;;;;;1.73;1.20;;;17.20;1.00;;;;;;4985086;28;20570;-70
2020/12/22 12:49:10;;;;;;;3.57;1.73;;;17.90;1.00;;;;;;4986827;28;20654;-70
2020/12/22 12:51:36;;;;;;;1.70;1.47;;;18.00;1.00;;;;;;4987629;28;20436;-69